Weather at Tims Angus Farm Airport

Public forecast

Using degrees Fahrenheit for public forecast. Weather courtesy of forecast.io.

Closest aviation weather report (METAR) to Tims Angus Farm Airport

Closest report is Wheeler Sack Army Air Field, 11.8 nm (21.9 km) SE. Retrieved 2021/01/20 15:36 UTC (19 minutes ago):

KGTB 201536Z AUTO 36009KT 10SM -UP BKN008 OVC014 M07/M10 A2994 RMK AO2 SNE1459UPB1459 BKN V OVC CIG 007 RWY03 SLP149

Closest aviation forecast (TAF) to Tims Angus Farm Airport

Forecast is more than 6 hours old.

Closest forecast is Wheeler Sack Army Air Field, 11.8 nm (21.9 km) SE. Retrieved 2021/01/20 09:03 UTC (7 hours ago):

TAF TAF KGTB 200900Z 2009/2115 29006KT 9999 BKN020 620209 QNH2984INS BECMG 2011/2012 29009KT 8000 -SN BKN010 620109 QNH2985INS BECMG 2014/2016 29010G15KT 8000 -SN BKN015 620158 520103 QNH2991INS BECMG 2019/2020 VRB06KT 9999 NSW SCT030 QNH2970INS BECMG 2108/2109 17009KT 8000 -SN BKN020 620202 QNH2951INS TXM05/2015Z TNM13/2100Z